createdAt,value
2019-03-06T00:00:52.812Z,3.27
2019-03-06T00:03:01.814Z,3.90
2019-03-06T00:05:09.628Z,4.07
2019-03-06T00:07:17.823Z,4.13
2019-03-06T00:09:26.447Z,4.13
2019-03-06T00:11:34.235Z,3.23
2019-03-06T00:13:42.201Z,3.93
2019-03-06T00:15:50.331Z,4.23
2019-03-06T00:17:57.596Z,3.70
2019-03-06T00:20:06.922Z,3.37
2019-03-06T00:22:14.284Z,3.83
2019-03-06T00:24:21.279Z,2.67
2019-03-06T00:26:28.461Z,4.20
2019-03-06T00:28:36.347Z,3.17
2019-03-06T00:30:43.474Z,3.70
2019-03-06T00:32:50.548Z,4.00
2019-03-06T00:34:59.045Z,4.27
2019-03-06T00:37:06.657Z,3.87
2019-03-06T00:39:13.868Z,4.47
2019-03-06T00:41:22.709Z,3.87
2019-03-06T00:43:29.340Z,3.90
2019-03-06T00:45:37.531Z,4.47
2019-03-06T00:47:44.649Z,3.53
2019-03-06T00:49:51.891Z,3.90
2019-03-06T00:51:58.760Z,3.77
2019-03-06T00:54:05.820Z,4.30
2019-03-06T00:56:12.878Z,4.87
2019-03-06T00:58:19.994Z,3.77
2019-03-06T01:00:27.638Z,4.20
2019-03-06T01:02:34.698Z,4.23
2019-03-06T01:04:41.436Z,4.67
2019-03-06T01:06:48.922Z,4.07
2019-03-06T01:08:56.277Z,4.47
2019-03-06T01:11:03.189Z,4.27
2019-03-06T01:13:10.436Z,4.73
2019-03-06T01:15:22.008Z,5.13
2019-03-06T01:17:29.460Z,6.00
2019-03-06T01:19:36.231Z,4.33
2019-03-06T01:21:42.980Z,4.63
2019-03-06T01:23:50.395Z,4.57
2019-03-06T01:25:57.552Z,4.70
2019-03-06T01:28:05.092Z,4.97
2019-03-06T01:30:23.102Z,5.37
2019-03-06T01:32:30.061Z,5.43
2019-03-06T01:34:48.108Z,4.37
2019-03-06T01:37:08.774Z,5.43
2019-03-06T01:39:24.853Z,5.47
2019-03-06T01:41:36.282Z,6.03
2019-03-06T01:43:44.789Z,5.67
2019-03-06T01:45:51.717Z,5.60
2019-03-06T01:47:58.776Z,5.80
2019-03-06T01:50:10.155Z,5.87
2019-03-06T01:52:17.174Z,5.10
2019-03-06T01:54:24.939Z,6.30
2019-03-06T01:56:32.486Z,5.70
2019-03-06T01:58:40.045Z,5.70
2019-03-06T02:00:47.043Z,5.67
2019-03-06T02:02:54.348Z,5.23
2019-03-06T02:05:01.451Z,5.07
2019-03-06T02:07:11.518Z,5.03
2019-03-06T02:09:21.732Z,4.70
2019-03-06T02:11:28.846Z,5.23
2019-03-06T02:13:35.655Z,5.53
2019-03-06T02:15:42.916Z,5.80
2019-03-06T02:17:50.203Z,5.20
2019-03-06T02:19:58.189Z,5.60
2019-03-06T02:22:04.913Z,5.67
2019-03-06T02:24:11.833Z,5.83
2019-03-06T02:26:19.037Z,6.00
2019-03-06T02:28:26.196Z,5.90
2019-03-06T02:30:33.179Z,6.03
2019-03-06T02:32:39.983Z,5.77
2019-03-06T02:34:47.464Z,6.83
2019-03-06T02:36:55.519Z,6.40
2019-03-06T02:39:02.351Z,6.33
2019-03-06T02:41:11.055Z,5.63
2019-03-06T02:43:18.553Z,5.80
2019-03-06T02:45:25.688Z,6.93
2019-03-06T02:47:32.935Z,5.93
2019-03-06T02:49:39.612Z,5.77
2019-03-06T02:51:47.404Z,5.77
2019-03-06T02:53:54.317Z,5.97
2019-03-06T02:56:01.529Z,5.73
2019-03-06T02:58:19.444Z,7.03
2019-03-06T03:00:35.155Z,6.17
2019-03-06T03:02:47.185Z,6.53
2019-03-06T03:04:56.121Z,5.87
2019-03-06T03:07:04.672Z,5.70
2019-03-06T03:09:20.739Z,5.63
2019-03-06T03:11:27.809Z,6.00
2019-03-06T03:13:35.113Z,7.37
2019-03-06T03:15:42.047Z,6.60
2019-03-06T03:17:48.904Z,5.73
2019-03-06T03:19:56.200Z,6.80
2019-03-06T03:22:03.085Z,6.70
2019-03-06T03:24:10.592Z,5.70
2019-03-06T03:26:17.498Z,7.33
2019-03-06T03:28:24.432Z,7.47
2019-03-06T03:30:32.799Z,8.40
2019-03-06T03:32:39.617Z,6.90
2019-03-06T03:34:47.205Z,7.63
2019-03-06T03:36:54.314Z,8.93
2019-03-06T03:39:01.363Z,8.53
2019-03-06T03:41:09.523Z,7.17
2019-03-06T03:43:16.789Z,8.27
2019-03-06T03:45:24.514Z,8.07
2019-03-06T03:47:32.724Z,8.20
2019-03-06T03:49:42.537Z,8.93
2019-03-06T03:51:49.136Z,7.03
2019-03-06T03:53:56.302Z,7.87
2019-03-06T03:56:04.128Z,7.63
2019-03-06T03:58:11.107Z,8.70
2019-03-06T04:00:23.393Z,8.50
2019-03-06T04:02:30.584Z,8.80
2019-03-06T04:04:38.643Z,10.00
2019-03-06T04:06:45.917Z,8.40
2019-03-06T04:08:53.464Z,8.77
2019-03-06T04:11:01.223Z,9.23
2019-03-06T04:13:08.768Z,8.77
2019-03-06T04:15:17.789Z,8.80
2019-03-06T04:17:24.536Z,8.77
2019-03-06T04:19:31.595Z,9.77
2019-03-06T04:21:38.633Z,10.13
2019-03-06T04:23:46.345Z,9.70
2019-03-06T04:25:53.427Z,8.80
2019-03-06T04:28:00.540Z,9.60
2019-03-06T04:30:15.975Z,9.83
2019-03-06T04:32:22.740Z,8.83
2019-03-06T04:34:29.678Z,8.67
2019-03-06T04:36:36.577Z,9.40
2019-03-06T04:38:43.940Z,11.20
2019-03-06T04:40:51.111Z,8.73
2019-03-06T04:42:57.809Z,9.90
2019-03-06T04:45:06.037Z,9.70
2019-03-06T04:47:13.235Z,10.20
2019-03-06T04:49:20.288Z,12.83
2019-03-06T04:51:27.487Z,14.37
2019-03-06T04:53:36.128Z,7.87
2019-03-06T04:55:44.722Z,8.63
2019-03-06T04:57:52.051Z,9.60
2019-03-06T04:59:59.577Z,6.83
2019-03-06T05:02:08.556Z,5.37
2019-03-06T05:04:15.381Z,4.60
2019-03-06T05:06:21.901Z,4.80
2019-03-06T05:08:28.783Z,4.67
2019-03-06T05:10:35.852Z,6.00
2019-03-06T05:12:43.623Z,7.53
2019-03-06T05:14:50.558Z,5.70
2019-03-06T05:17:02.183Z,6.77
2019-03-06T05:19:11.266Z,5.63
2019-03-06T05:21:18.416Z,5.10
2019-03-06T05:23:25.399Z,5.27
2019-03-06T05:25:32.662Z,5.07
2019-03-06T05:27:39.786Z,4.80
2019-03-06T05:29:46.681Z,5.47
2019-03-06T05:32:26.625Z,5.17
2019-03-06T05:34:33.916Z,4.83
2019-03-06T05:37:21.697Z,5.30
2019-03-06T05:39:28.780Z,5.30
2019-03-06T05:41:36.231Z,4.73
2019-03-06T05:43:43.702Z,5.60
2019-03-06T05:45:50.802Z,5.47
2019-03-06T05:47:58.235Z,4.47
2019-03-06T05:50:06.988Z,4.47
2019-03-06T05:52:13.865Z,4.27
2019-03-06T05:54:21.429Z,4.70
2019-03-06T05:56:28.371Z,5.13
2019-03-06T05:58:35.683Z,5.30
2019-03-06T06:00:42.483Z,5.97
2019-03-06T06:02:49.366Z,6.07
2019-03-06T06:04:55.882Z,7.27
2019-03-06T06:07:02.927Z,6.83
2019-03-06T06:09:11.145Z,6.90
2019-03-06T06:11:18.899Z,6.07
2019-03-06T06:13:26.076Z,5.13
2019-03-06T06:15:32.905Z,4.10
2019-03-06T06:17:39.766Z,4.90
2019-03-06T06:19:46.489Z,6.83
2019-03-06T06:21:54.774Z,4.13
2019-03-06T06:24:03.926Z,5.43
2019-03-06T06:26:11.025Z,6.10
2019-03-06T06:28:19.415Z,7.23
2019-03-06T06:30:26.423Z,7.17
2019-03-06T06:32:33.476Z,5.83
2019-03-06T06:34:40.306Z,5.03
2019-03-06T06:36:47.505Z,6.23
2019-03-06T06:38:53.986Z,7.10
2019-03-06T06:41:01.351Z,5.87
2019-03-06T06:43:08.905Z,4.27
2019-03-06T06:45:19.113Z,6.37
2019-03-06T06:47:26.566Z,7.23
2019-03-06T06:49:33.436Z,6.10
2019-03-06T06:51:59.977Z,6.80
2019-03-06T06:54:29.049Z,7.13
2019-03-06T06:56:56.853Z,9.23
2019-03-06T06:59:16.625Z,6.57
2019-03-06T07:01:33.441Z,6.17
2019-03-06T07:04:32.813Z,5.77
2019-03-06T07:06:58.653Z,6.80
2019-03-06T07:09:07.166Z,5.93
2019-03-06T07:11:15.813Z,5.87
2019-03-06T07:13:30.216Z,7.40
2019-03-06T07:15:54.116Z,5.63
2019-03-06T07:18:12.896Z,6.30
2019-03-06T07:20:23.559Z,5.63
2019-03-06T07:22:35.215Z,6.20
2019-03-06T07:24:52.396Z,5.87
2019-03-06T07:27:08.396Z,6.20
2019-03-06T07:29:22.036Z,7.70
2019-03-06T07:31:40.904Z,7.27
2019-03-06T07:33:51.995Z,6.57
2019-03-06T07:36:06.463Z,7.00
2019-03-06T07:38:13.345Z,13.77
2019-03-06T07:40:23.076Z,15.83
2019-03-06T07:42:38.739Z,7.20
2019-03-06T07:45:28.406Z,6.50
2019-03-06T07:47:38.269Z,5.90
2019-03-06T07:49:48.226Z,6.50
2019-03-06T07:52:05.925Z,5.90
2019-03-06T07:54:28.163Z,6.80
2019-03-06T07:56:48.755Z,6.03
2019-03-06T07:58:57.533Z,14.40
2019-03-06T08:01:04.635Z,25.67
2019-03-06T08:03:11.878Z,7.60
2019-03-06T08:05:18.846Z,6.90
2019-03-06T08:07:25.776Z,6.50
2019-03-06T08:09:33.981Z,8.10
2019-03-06T08:11:42.795Z,8.40
2019-03-06T08:13:51.586Z,8.67
2019-03-06T08:16:03.195Z,7.93
2019-03-06T08:18:20.224Z,9.70
2019-03-06T08:20:27.263Z,7.90
2019-03-06T08:22:37.696Z,9.93
2019-03-06T08:24:46.523Z,9.13
2019-03-06T08:26:53.474Z,10.27
2019-03-06T08:29:00.767Z,9.20
2019-03-06T08:31:16.127Z,10.33
2019-03-06T08:33:22.946Z,9.60
2019-03-06T08:35:30.282Z,16.23
2019-03-06T08:37:37.976Z,11.67
2019-03-06T08:39:44.707Z,9.73
2019-03-06T08:41:52.064Z,8.93
2019-03-06T08:43:58.967Z,8.97
2019-03-06T08:46:17.866Z,158.03
2019-03-06T08:48:41.746Z,9.23
2019-03-06T08:51:05.443Z,11.70
2019-03-06T08:53:30.644Z,10.07
2019-03-06T08:55:39.306Z,8.90
2019-03-06T08:58:03.140Z,9.27
2019-03-06T09:00:20.016Z,10.80
2019-03-06T09:02:33.346Z,7.90
2019-03-06T09:04:58.353Z,10.47
2019-03-06T09:07:06.763Z,10.07
2019-03-06T09:09:26.556Z,9.33
2019-03-06T09:11:36.704Z,11.87
2019-03-06T09:14:03.857Z,9.43
2019-03-06T09:16:21.494Z,9.17
2019-03-06T09:18:46.487Z,9.03
2019-03-06T09:20:59.583Z,7.27
2019-03-06T09:23:24.455Z,7.60
2019-03-06T09:25:36.292Z,8.77
2019-03-06T09:27:46.337Z,7.53
2019-03-06T09:30:15.948Z,5.97
2019-03-06T09:32:21.874Z,6.93
2019-03-06T09:34:33.686Z,6.03
2019-03-06T09:36:52.326Z,4.93
2019-03-06T09:39:16.206Z,6.07
2019-03-06T09:41:24.464Z,6.93
2019-03-06T09:43:42.254Z,6.17
2019-03-06T09:46:08.476Z,5.17
2019-03-06T09:48:34.288Z,6.13
2019-03-06T09:50:46.296Z,6.40
2019-03-06T09:53:00.593Z,6.83
2019-03-06T09:55:12.116Z,6.20
2019-03-06T09:57:20.836Z,6.53
2019-03-06T09:59:30.256Z,5.60
2019-03-06T10:01:55.389Z,5.40
2019-03-06T10:04:10.033Z,5.80
2019-03-06T10:06:34.893Z,6.60
2019-03-06T10:08:46.301Z,4.77
2019-03-06T10:11:00.538Z,5.87
2019-03-06T10:13:11.817Z,5.10
2019-03-06T10:15:26.448Z,4.57
2019-03-06T10:17:41.897Z,4.57
2019-03-06T10:19:50.348Z,3.53
2019-03-06T10:21:59.141Z,3.13
2019-03-06T10:24:26.867Z,3.40
2019-03-06T10:26:34.088Z,4.33
2019-03-06T10:28:41.067Z,3.77
2019-03-06T10:30:48.310Z,4.53
2019-03-06T10:32:55.308Z,4.23
2019-03-06T10:35:03.649Z,4.20
2019-03-06T10:37:12.348Z,4.90
2019-03-06T10:39:19.268Z,5.73
2019-03-06T10:41:26.168Z,5.60
2019-03-06T10:43:34.238Z,5.33
2019-03-06T10:45:41.795Z,4.57
2019-03-06T10:47:49.195Z,8.93
2019-03-06T10:49:56.351Z,3.83
2019-03-06T10:52:03.628Z,4.50
2019-03-06T10:54:10.768Z,3.43
2019-03-06T10:56:17.961Z,4.17
2019-03-06T10:58:25.288Z,4.10
2019-03-06T11:00:35.083Z,4.53
2019-03-06T11:02:42.389Z,4.00
2019-03-06T11:04:54.144Z,3.20
2019-03-06T11:07:01.677Z,4.17
2019-03-06T11:09:11.322Z,3.63
2019-03-06T11:11:19.505Z,6.77
2019-03-06T11:13:26.474Z,4.40
2019-03-06T11:15:34.866Z,4.30
2019-03-06T11:17:42.385Z,4.60
2019-03-06T11:19:49.686Z,6.23
2019-03-06T11:21:56.776Z,4.07
2019-03-06T11:24:04.056Z,7.47
2019-03-06T11:26:11.235Z,3.83
2019-03-06T11:28:18.424Z,3.83
2019-03-06T11:30:41.712Z,4.23
2019-03-06T11:32:54.484Z,4.60
2019-03-06T11:34:59.169Z,4.63
2019-03-06T11:37:07.172Z,5.20
2019-03-06T11:39:14.895Z,5.47
2019-03-06T11:41:22.236Z,5.10
2019-03-06T11:43:29.572Z,6.60
2019-03-06T11:45:38.734Z,7.33
2019-03-06T11:47:45.883Z,6.47
2019-03-06T11:49:57.944Z,4.93
2019-03-06T11:52:06.548Z,6.00
2019-03-06T11:54:14.672Z,7.13
2019-03-06T11:56:24.181Z,6.30
2019-03-06T11:58:32.534Z,6.37
2019-03-06T12:00:46.435Z,6.20
2019-03-06T12:02:54.436Z,5.37
2019-03-06T12:05:02.196Z,6.63
2019-03-06T12:07:11.009Z,4.60
2019-03-06T12:09:29.957Z,5.77
2019-03-06T12:11:36.866Z,7.20
2019-03-06T12:13:45.522Z,7.10
2019-03-06T12:15:53.655Z,6.13
2019-03-06T12:18:00.997Z,7.23
2019-03-06T12:20:10.285Z,7.10
2019-03-06T12:22:17.563Z,10.93
2019-03-06T12:24:25.212Z,9.73
2019-03-06T12:26:32.855Z,7.87
2019-03-06T12:28:40.076Z,7.97
2019-03-06T12:30:47.193Z,8.70
2019-03-06T12:32:54.475Z,8.00
2019-03-06T12:35:02.356Z,8.63
2019-03-06T12:37:09.556Z,11.37
2019-03-06T12:39:19.093Z,10.10
2019-03-06T12:41:27.998Z,10.57
2019-03-06T12:43:35.102Z,11.13
2019-03-06T12:45:44.096Z,8.60
2019-03-06T12:47:58.365Z,9.83
2019-03-06T12:50:08.629Z,9.77
2019-03-06T12:52:15.863Z,8.10
2019-03-06T12:54:22.723Z,9.27
2019-03-06T12:56:31.645Z,9.93
2019-03-06T12:58:38.976Z,8.27
2019-03-06T13:00:45.975Z,10.33
2019-03-06T13:02:54.500Z,11.00
2019-03-06T13:05:01.243Z,9.70
2019-03-06T13:07:08.905Z,10.07
2019-03-06T13:09:22.037Z,10.00
2019-03-06T13:11:29.577Z,9.33
2019-03-06T13:13:38.406Z,11.53
2019-03-06T13:15:46.375Z,8.40
2019-03-06T13:17:53.854Z,9.93
2019-03-06T13:20:00.883Z,11.47
2019-03-06T13:22:11.374Z,12.57
2019-03-06T13:24:18.618Z,12.57
2019-03-06T13:26:25.432Z,9.63
2019-03-06T13:28:32.218Z,9.87
2019-03-06T13:30:39.418Z,9.53
2019-03-06T13:32:58.165Z,9.27
2019-03-06T13:35:07.856Z,9.20
2019-03-06T13:37:15.005Z,8.43
2019-03-06T13:39:21.886Z,7.90
2019-03-06T13:41:33.586Z,9.00
2019-03-06T13:43:41.094Z,7.73
2019-03-06T13:45:51.406Z,8.37
2019-03-06T13:47:58.658Z,7.47
2019-03-06T13:50:11.644Z,9.43
2019-03-06T13:52:19.498Z,9.60
2019-03-06T13:54:26.583Z,7.53
2019-03-06T13:56:38.475Z,8.17
2019-03-06T13:58:47.126Z,7.70
2019-03-06T14:00:55.032Z,7.80
2019-03-06T14:03:02.316Z,8.47
2019-03-06T14:05:10.357Z,8.17
2019-03-06T14:07:18.670Z,8.97
2019-03-06T14:09:26.749Z,8.80
2019-03-06T14:11:33.916Z,7.93
2019-03-06T14:13:41.550Z,8.23
2019-03-06T14:15:54.003Z,9.63
2019-03-06T14:17:59.392Z,9.23
2019-03-06T14:20:14.423Z,13.00
2019-03-06T14:22:21.691Z,9.83
2019-03-06T14:24:29.377Z,12.57
2019-03-06T14:26:37.079Z,11.63
2019-03-06T14:28:46.872Z,10.53
2019-03-06T14:30:54.680Z,15.50
2019-03-06T14:33:02.015Z,12.00
2019-03-06T14:35:09.671Z,13.17
2019-03-06T14:37:17.105Z,11.77
2019-03-06T14:39:29.065Z,9.07
2019-03-06T14:41:37.048Z,9.30
2019-03-06T14:43:44.428Z,9.53
2019-03-06T14:45:51.441Z,10.33
2019-03-06T14:47:58.609Z,15.73
2019-03-06T14:50:07.225Z,12.90
2019-03-06T14:52:14.640Z,13.40
2019-03-06T14:54:21.640Z,12.37
2019-03-06T14:56:28.856Z,30.13
2019-03-06T14:58:36.335Z,14.23
2019-03-06T15:00:43.874Z,20.23
2019-03-06T15:02:51.035Z,11.17
2019-03-06T15:04:58.742Z,10.23
2019-03-06T15:07:06.347Z,10.63
2019-03-06T15:09:28.290Z,12.53
2019-03-06T15:11:35.839Z,12.77
2019-03-06T15:13:44.507Z,10.50
2019-03-06T15:15:53.157Z,13.57
2019-03-06T15:18:00.344Z,14.03
2019-03-06T15:20:11.654Z,13.03
2019-03-06T15:22:18.962Z,10.47
2019-03-06T15:24:26.144Z,9.73
2019-03-06T15:26:33.678Z,9.10
2019-03-06T15:28:40.625Z,9.67
2019-03-06T15:30:47.746Z,10.83
2019-03-06T15:32:54.990Z,9.73
2019-03-06T15:35:02.391Z,9.10
2019-03-06T15:37:09.846Z,8.57
2019-03-06T15:39:29.462Z,10.53
2019-03-06T15:41:37.370Z,9.83
2019-03-06T15:43:44.763Z,9.07
2019-03-06T15:45:51.827Z,11.13
2019-03-06T15:47:59.577Z,11.37
2019-03-06T15:50:10.407Z,9.90
2019-03-06T15:52:18.574Z,9.13
2019-03-06T15:54:26.535Z,9.00
2019-03-06T15:56:34.074Z,10.60
2019-03-06T15:58:43.874Z,9.87
2019-03-06T16:00:52.142Z,9.10
2019-03-06T16:03:00.186Z,10.30
2019-03-06T16:05:11.149Z,9.23
2019-03-06T16:07:18.437Z,10.60
2019-03-06T16:09:25.640Z,10.27
2019-03-06T16:11:33.564Z,10.37
2019-03-06T16:13:41.341Z,12.07
2019-03-06T16:15:48.850Z,12.27
2019-03-06T16:17:59.672Z,12.70
2019-03-06T16:20:18.826Z,14.47
2019-03-06T16:22:25.703Z,14.00
2019-03-06T16:24:34.423Z,15.17
2019-03-06T16:26:42.121Z,13.40
2019-03-06T16:28:49.447Z,12.60
2019-03-06T16:30:56.732Z,14.37
2019-03-06T16:33:04.134Z,17.63
2019-03-06T16:35:11.672Z,20.70
2019-03-06T16:37:19.323Z,18.00
2019-03-06T16:39:27.222Z,16.40
2019-03-06T16:41:35.403Z,15.87
2019-03-06T16:43:43.087Z,15.50
2019-03-06T16:45:50.825Z,23.13
2019-03-06T16:47:58.084Z,18.47
2019-03-06T16:50:14.375Z,19.23
2019-03-06T16:52:19.214Z,17.03
2019-03-06T16:54:26.867Z,18.00
2019-03-06T16:56:35.753Z,20.80
2019-03-06T16:58:42.910Z,18.07
2019-03-06T17:00:52.297Z,16.87
2019-03-06T17:03:02.834Z,23.47
2019-03-06T17:05:11.484Z,34.23
2019-03-06T17:07:18.798Z,20.20
2019-03-06T17:09:26.156Z,20.13
2019-03-06T17:11:34.287Z,20.13
2019-03-06T17:13:41.957Z,17.03
2019-03-06T17:15:49.530Z,16.53
2019-03-06T17:17:57.427Z,87.63
2019-03-06T17:20:05.739Z,217.70
2019-03-06T17:22:13.147Z,299.87
2019-03-06T17:24:21.155Z,190.23
2019-03-06T17:26:28.995Z,242.77
2019-03-06T17:28:36.407Z,151.23
2019-03-06T17:30:44.011Z,103.20
2019-03-06T17:33:03.943Z,124.73
2019-03-06T17:35:11.477Z,224.10
2019-03-06T17:37:19.066Z,60.97
2019-03-06T17:39:26.574Z,119.07
2019-03-06T17:41:33.993Z,41.07
2019-03-06T17:43:41.377Z,19.30
2019-03-06T17:45:49.801Z,15.70
2019-03-06T17:47:57.698Z,17.40
2019-03-06T17:50:06.483Z,18.37
2019-03-06T17:52:14.220Z,17.57
2019-03-06T17:54:21.929Z,17.70
2019-03-06T17:56:31.326Z,15.67
2019-03-06T17:58:38.917Z,17.47
2019-03-06T18:00:47.978Z,15.80
2019-03-06T18:02:55.657Z,17.37
2019-03-06T18:05:03.217Z,17.57
2019-03-06T18:07:11.617Z,19.07
2019-03-06T18:09:19.285Z,16.77
2019-03-06T18:11:26.897Z,18.87
2019-03-06T18:13:34.197Z,19.57
2019-03-06T18:15:44.338Z,17.00
2019-03-06T18:17:51.238Z,17.10
2019-03-06T18:20:00.397Z,19.07
2019-03-06T18:22:09.084Z,17.17
2019-03-06T18:24:16.983Z,19.47
2019-03-06T18:26:24.594Z,18.17
2019-03-06T18:28:32.823Z,18.53
2019-03-06T18:30:40.664Z,19.47
2019-03-06T18:32:49.295Z,16.27
2019-03-06T18:34:56.554Z,19.37
2019-03-06T18:37:03.823Z,18.50
2019-03-06T18:39:12.851Z,16.73
2019-03-06T18:41:20.233Z,15.50
2019-03-06T18:43:27.907Z,19.13
2019-03-06T18:45:37.191Z,17.33
2019-03-06T18:47:44.553Z,16.63
2019-03-06T18:49:52.033Z,15.30
2019-03-06T18:51:59.451Z,17.00
2019-03-06T18:54:06.926Z,16.23
2019-03-06T18:56:14.428Z,17.67
2019-03-06T18:58:23.122Z,15.80
2019-03-06T19:00:33.751Z,14.87
2019-03-06T19:02:41.612Z,15.07
2019-03-06T19:04:50.495Z,15.73
2019-03-06T19:06:57.815Z,15.97
2019-03-06T19:09:07.539Z,13.77
2019-03-06T19:11:17.215Z,15.27
2019-03-06T19:13:24.977Z,14.37
2019-03-06T19:15:32.277Z,14.80
2019-03-06T19:17:39.856Z,15.57
2019-03-06T19:19:47.880Z,13.23
2019-03-06T19:21:55.970Z,13.90
2019-03-06T19:24:03.805Z,13.57
2019-03-06T19:26:11.266Z,14.83
2019-03-06T19:28:18.779Z,16.20
2019-03-06T19:30:27.495Z,14.30
2019-03-06T19:32:35.503Z,19.63
2019-03-06T19:34:44.206Z,24.07
2019-03-06T19:36:52.006Z,24.20
2019-03-06T19:38:59.948Z,17.93
2019-03-06T19:41:09.256Z,22.20
2019-03-06T19:43:17.838Z,16.93
2019-03-06T19:45:26.565Z,19.87
2019-03-06T19:47:34.429Z,21.30
2019-03-06T19:49:42.199Z,17.33
2019-03-06T19:51:52.428Z,16.33
2019-03-06T19:54:20.658Z,15.97
2019-03-06T19:56:29.039Z,17.97
2019-03-06T19:58:36.425Z,14.77
2019-03-06T20:00:45.228Z,14.53
2019-03-06T20:02:53.811Z,13.93
2019-03-06T20:05:01.232Z,14.40
2019-03-06T20:07:09.038Z,14.83
2019-03-06T20:09:27.621Z,16.83
2019-03-06T20:11:34.998Z,16.17
2019-03-06T20:13:42.778Z,14.33
2019-03-06T20:15:50.308Z,15.37
2019-03-06T20:17:59.199Z,15.90
2019-03-06T20:20:11.618Z,15.57
2019-03-06T20:22:22.766Z,15.20
2019-03-06T20:24:29.978Z,15.73
2019-03-06T20:26:37.971Z,16.97
2019-03-06T20:28:46.955Z,18.77
2019-03-06T20:30:54.674Z,17.27
2019-03-06T20:33:03.406Z,16.60
2019-03-06T20:35:11.006Z,21.27
2019-03-06T20:37:18.549Z,17.47
2019-03-06T20:39:26.428Z,23.13
2019-03-06T20:41:33.832Z,22.67
2019-03-06T20:44:04.273Z,20.03
2019-03-06T20:46:12.729Z,20.80
2019-03-06T20:48:20.592Z,19.67
2019-03-06T20:50:28.098Z,16.60
2019-03-06T20:52:36.099Z,18.77
2019-03-06T20:54:43.452Z,17.00
2019-03-06T20:56:50.861Z,17.97
2019-03-06T20:58:59.813Z,17.10
2019-03-06T21:01:08.238Z,18.23
2019-03-06T21:03:16.062Z,18.77
2019-03-06T21:05:23.809Z,17.70
2019-03-06T21:07:31.057Z,17.97
2019-03-06T21:09:38.474Z,18.37
2019-03-06T21:11:45.995Z,18.40
2019-03-06T21:13:53.442Z,18.67
2019-03-06T21:16:01.726Z,20.53
2019-03-06T21:18:11.184Z,19.23
2019-03-06T21:20:26.739Z,19.00
2019-03-06T21:22:34.145Z,18.70
2019-03-06T21:24:41.786Z,19.77
2019-03-06T21:26:49.264Z,18.77
2019-03-06T21:28:56.987Z,24.37
2019-03-06T21:31:04.438Z,20.90
2019-03-06T21:33:12.074Z,18.57
2019-03-06T21:35:19.632Z,21.13
2019-03-06T21:37:27.074Z,19.20
2019-03-06T21:39:46.442Z,19.63
2019-03-06T21:42:14.205Z,23.00
2019-03-06T21:44:21.897Z,21.40
2019-03-06T21:46:30.000Z,18.13
2019-03-06T21:48:37.475Z,18.33
2019-03-06T21:50:44.916Z,19.10
2019-03-06T21:52:52.488Z,20.83
2019-03-06T21:55:02.664Z,20.67
2019-03-06T21:57:15.493Z,18.33
2019-03-06T21:59:23.588Z,20.27
2019-03-06T22:01:31.028Z,19.50
2019-03-06T22:03:38.562Z,18.27
2019-03-06T22:05:45.740Z,19.00
2019-03-06T22:07:53.331Z,18.27
2019-03-06T22:10:00.585Z,17.53
2019-03-06T22:12:09.422Z,17.67
2019-03-06T22:14:16.869Z,19.00
2019-03-06T22:16:25.061Z,17.77
2019-03-06T22:18:33.043Z,18.23
2019-03-06T22:20:40.317Z,17.40
2019-03-06T22:22:47.359Z,16.63
2019-03-06T22:24:55.216Z,18.97
2019-03-06T22:27:02.433Z,17.83
2019-03-06T22:29:12.627Z,18.57
2019-03-06T22:31:20.856Z,17.70
2019-03-06T22:33:27.680Z,17.13
2019-03-06T22:35:34.556Z,16.87
2019-03-06T22:37:42.255Z,17.33
2019-03-06T22:39:50.839Z,16.07
2019-03-06T22:41:57.933Z,16.93
2019-03-06T22:44:04.981Z,16.07
2019-03-06T22:46:12.279Z,17.17
2019-03-06T22:48:19.334Z,15.07
2019-03-06T22:50:26.190Z,16.67
2019-03-06T22:52:33.384Z,18.13
2019-03-06T22:54:40.489Z,16.23
2019-03-06T22:56:47.510Z,15.17
2019-03-06T22:58:54.623Z,15.50
2019-03-06T23:01:06.048Z,16.07
2019-03-06T23:03:15.267Z,16.20
2019-03-06T23:05:22.317Z,15.50
2019-03-06T23:07:29.273Z,17.37
2019-03-06T23:09:37.165Z,16.90
2019-03-06T23:11:44.891Z,16.23
2019-03-06T23:13:51.930Z,15.10
2019-03-06T23:15:59.218Z,17.47
2019-03-06T23:18:06.791Z,16.53
2019-03-06T23:20:15.552Z,15.10
2019-03-06T23:22:23.604Z,14.40
2019-03-06T23:24:30.873Z,15.83
2019-03-06T23:26:42.701Z,15.00
2019-03-06T23:28:46.407Z,15.57
2019-03-06T23:30:53.516Z,16.17
2019-03-06T23:33:00.830Z,15.57
